Hartshorne, OK (74547)

7:16 PM CST on November 23, 2014 (GMT -0600)
Kinkead Hills | Change Station
CLOSE
Current Station
Personal Weather Station
Location: McAlester, OK
Elevation: 808 ft
Nearby Weather Stations

Elev 808 ft 34.90 °N, 95.73 °W | Updated 10 seconds ago

Partly Cloudy
Partly Cloudy
57.7 °F
Feels Like 57.7 °F
N
9.0
Wind Variable Wind from West

Today
High -- | Low -- °F
--% Chance of Precip.
Yesterday
High -- | Low -- °F
Precip. -- in
7:04 AM 5:12 PM
Waxing Crescent, 3% visible
Pressure 29.44 in
Visibility 10.0 miles
Clouds Overcast 8000 ft
Dew Point 48 °F
Humidity 69%
Rainfall 0.00 in
Snow Depth Not available.
UV 0 out of 12
Pollen .60 out of 12
Air Quality Not available.
Flu Activity Not available.
METAR KMLC 240053Z AUTO 28009KT 10SM OVC080 16/08 A2945 RMK AO2 SLP967 T01560078

More Conditions Fewer Conditions

Pressure 29.44 in
Visibility 10.0 miles
Clouds Overcast 8000 ft
Dew Point 48 °F
Humidity 69%
Rainfall 0.00 in
Snow Depth Not available.
UV 0 out of 12
Pollen .60 out of 12
Air Quality Not available.
Flu Activity Not available.
METAR KMLC 240053Z AUTO 28009KT 10SM OVC080 16/08 A2945 RMK AO2 SLP967 T01560078

More Conditions Fewer Conditions

Nowcast | as of 7:07 PM CST on November 23, 2014

At 7:05 PM... National Weather Service radars indicated scattered light showers and isolated small thunderstorms in far northeast Oklahoma and northwest Arkansas... located generally east of a line from mountainberg... to Siloam Springs... to Welch. This activity was moving to the east at about 35 mph. A second area of light rainfall and drizzle was located in northeast Oklahoma... west of a line from Okfuskee to coffeville. Through 9:00 PM... showers and thunderstorms will continue to move off to the east out of the area as a cold front moves into the region. Light rain or drizzle will continue to spread in northeast Oklahoma in the wake of the cold front.

×

10-Day Weather Forecast

Almanac

Astronomy

Nov. 23, 2014 Rise Set
Actual Time
Civil Twilight
Nautical Twilight
Astronomical Twilight
Moon
Length of Visible Light
Length of Day
Tomorrow will be .
, % of the Moon is Illuminated

Today's Extremes

State Highs State Lows

Community

WunderPhotos

Upload Photos

1,773,234 photos uploaded!

WunderBlogs® & News

Nearby

Air Quality

  Air Quality AQ Index Pollutant
Not available.

Snow Depth

Station Depth Elevation

Earthquake Activity

City Distance Mag. Time & Date
Minimum magnitude displayed is 2.5.

Coastal Water Temperatures

Place Temperature

Nearby Weather Stations